createdAt,value
2023-05-12T00:00:31.143Z,10
2023-05-12T00:01:38.019Z,8
2023-05-12T00:02:44.899Z,9
2023-05-12T00:03:51.854Z,10
2023-05-12T00:04:58.673Z,10
2023-05-12T00:06:05.442Z,12
2023-05-12T00:07:12.389Z,9
2023-05-12T00:08:19.290Z,10
2023-05-12T00:09:26.113Z,9
2023-05-12T00:10:32.960Z,13
2023-05-12T00:11:39.747Z,9
2023-05-12T00:12:46.688Z,9
2023-05-12T00:13:53.513Z,10
2023-05-12T00:15:00.351Z,9
2023-05-12T00:16:07.462Z,11
2023-05-12T00:17:14.298Z,10
2023-05-12T00:18:21.225Z,11
2023-05-12T00:19:28.098Z,11
2023-05-12T00:20:34.941Z,9
2023-05-12T00:21:41.842Z,8
2023-05-12T00:22:48.684Z,9
2023-05-12T00:23:55.510Z,10
2023-05-12T00:25:02.372Z,10
2023-05-12T00:26:09.275Z,10
2023-05-12T00:27:16.128Z,9
2023-05-12T00:28:23.000Z,12
2023-05-12T00:29:29.820Z,9
2023-05-12T00:30:36.671Z,10
2023-05-12T00:31:43.491Z,9
2023-05-12T00:32:50.399Z,9
2023-05-12T00:33:57.231Z,11
2023-05-12T00:35:04.061Z,10
2023-05-12T00:36:11.162Z,12
2023-05-12T00:37:18.019Z,9
2023-05-12T00:38:24.875Z,8
2023-05-12T00:39:31.770Z,8
2023-05-12T00:40:38.574Z,11
2023-05-12T00:41:45.405Z,13
2023-05-12T00:42:52.219Z,10
2023-05-12T00:43:59.170Z,9
2023-05-12T00:45:06.000Z,10
2023-05-12T00:46:13.209Z,9
2023-05-12T00:47:20.001Z,9
2023-05-12T00:48:26.798Z,11
2023-05-12T00:49:33.722Z,9
2023-05-12T00:50:40.506Z,9
2023-05-12T00:51:47.345Z,11
2023-05-12T00:52:54.192Z,11
2023-05-12T00:54:01.044Z,10
2023-05-12T00:55:07.961Z,11
2023-05-12T00:56:14.778Z,10
2023-05-12T00:57:21.619Z,11
2023-05-12T00:58:28.509Z,14
2023-05-12T00:59:35.503Z,13
2023-05-12T01:00:42.451Z,10
2023-05-12T01:01:49.254Z,12
2023-05-12T01:02:56.254Z,9
2023-05-12T01:04:03.042Z,10
2023-05-12T01:05:10.097Z,11
2023-05-12T01:06:16.811Z,9
2023-05-12T01:07:33.794Z,12
2023-05-12T01:08:40.699Z,11
2023-05-12T01:09:47.601Z,11
2023-05-12T01:10:57.048Z,11
2023-05-12T01:12:03.993Z,10
2023-05-12T01:13:30.383Z,10
2023-05-12T01:14:37.431Z,10
2023-05-12T01:15:44.348Z,12
2023-05-12T01:19:01.402Z,9
2023-05-12T01:20:37.847Z,9
2023-05-12T01:21:47.432Z,10
2023-05-12T01:22:54.231Z,13
2023-05-12T01:24:01.104Z,13
2023-05-12T01:25:07.955Z,10
2023-05-12T01:26:14.709Z,10
2023-05-12T01:27:21.551Z,14
2023-05-12T01:28:31.119Z,10
2023-05-12T01:29:38.048Z,10
2023-05-12T01:30:44.932Z,13
2023-05-12T01:31:51.755Z,11
2023-05-12T01:32:58.557Z,9
2023-05-12T01:34:05.384Z,11
2023-05-12T01:35:12.297Z,13
2023-05-12T01:36:19.109Z,10
2023-05-12T01:37:26.058Z,12
2023-05-12T01:38:32.824Z,13
2023-05-12T01:39:39.663Z,9
2023-05-12T01:40:46.469Z,9
2023-05-12T01:41:53.328Z,11
2023-05-12T01:43:00.176Z,13
2023-05-12T01:44:06.997Z,12
2023-05-12T01:45:13.835Z,13
2023-05-12T01:46:20.824Z,11
2023-05-12T01:47:27.720Z,12
2023-05-12T01:48:34.518Z,10
2023-05-12T01:49:41.291Z,11
2023-05-12T01:50:48.184Z,11
2023-05-12T01:51:54.994Z,13
2023-05-12T01:53:01.931Z,10
2023-05-12T01:54:08.686Z,10
2023-05-12T01:55:15.542Z,11
2023-05-12T01:56:22.453Z,11
2023-05-12T01:57:29.251Z,14
2023-05-12T01:58:36.158Z,9
2023-05-12T01:59:44.069Z,11
2023-05-12T02:00:50.879Z,11
2023-05-12T02:01:57.919Z,13
2023-05-12T02:03:04.825Z,10
2023-05-12T02:04:11.669Z,11
2023-05-12T02:05:18.543Z,13
2023-05-12T02:06:25.406Z,10
2023-05-12T02:07:32.358Z,11
2023-05-12T02:08:39.236Z,11
2023-05-12T02:09:46.230Z,11
2023-05-12T02:10:53.054Z,10
2023-05-12T02:12:10.026Z,13
2023-05-12T02:13:16.863Z,12
2023-05-12T02:14:23.678Z,13
2023-05-12T02:15:30.616Z,11
2023-05-12T02:16:37.730Z,13
2023-05-12T02:17:44.420Z,13
2023-05-12T02:18:51.305Z,11
2023-05-12T02:19:58.133Z,9
2023-05-12T02:21:04.967Z,12
2023-05-12T02:22:11.904Z,12
2023-05-12T02:23:19.939Z,12
2023-05-12T02:24:26.893Z,14
2023-05-12T02:25:33.744Z,10
2023-05-12T02:26:40.622Z,11
2023-05-12T02:27:47.478Z,10
2023-05-12T02:28:54.286Z,20
2023-05-12T02:30:01.254Z,15
2023-05-12T02:31:08.509Z,14
2023-05-12T02:32:15.387Z,12
2023-05-12T02:33:22.261Z,12
2023-05-12T02:34:29.106Z,12
2023-05-12T02:35:35.983Z,11
2023-05-12T02:36:42.889Z,13
2023-05-12T02:37:49.851Z,11
2023-05-12T02:38:56.694Z,12
2023-05-12T02:40:03.520Z,14
2023-05-12T02:41:10.754Z,14
2023-05-12T02:42:17.651Z,13
2023-05-12T02:43:24.522Z,12
2023-05-12T02:44:31.394Z,14
2023-05-12T02:45:39.089Z,12
2023-05-12T02:46:45.943Z,12
2023-05-12T02:47:52.812Z,14
2023-05-12T02:48:59.680Z,12
2023-05-12T02:50:06.739Z,14
2023-05-12T02:51:13.654Z,12
2023-05-12T02:52:20.528Z,12
2023-05-12T02:53:27.452Z,13
2023-05-12T02:54:34.344Z,12
2023-05-12T02:55:41.249Z,14
2023-05-12T02:56:48.076Z,13
2023-05-12T02:57:54.968Z,13
2023-05-12T02:59:01.840Z,15
2023-05-12T03:00:08.765Z,13
2023-05-12T03:01:15.802Z,14
2023-05-12T03:02:22.709Z,13
2023-05-12T03:03:29.598Z,14
2023-05-12T03:04:36.413Z,13
2023-05-12T03:05:43.414Z,12
2023-05-12T03:06:50.224Z,14
2023-05-12T03:07:57.088Z,14
2023-05-12T03:09:04.037Z,15
2023-05-12T03:10:10.900Z,15
2023-05-12T03:11:17.766Z,12
2023-05-12T03:12:24.660Z,14
2023-05-12T03:13:34.322Z,12
2023-05-12T03:14:41.162Z,11
2023-05-12T03:15:48.076Z,12
2023-05-12T03:16:54.948Z,13
2023-05-12T03:18:01.852Z,14
2023-05-12T03:19:08.826Z,13
2023-05-12T03:20:15.605Z,15
2023-05-12T03:21:28.304Z,12
2023-05-12T03:22:35.217Z,11
2023-05-12T03:23:42.051Z,12
2023-05-12T03:24:48.871Z,11
2023-05-12T03:25:55.703Z,12
2023-05-12T03:27:02.586Z,12
2023-05-12T03:28:09.441Z,12
2023-05-12T03:29:16.474Z,14
2023-05-12T03:30:23.340Z,11
2023-05-12T03:31:30.191Z,11
2023-05-12T03:32:37.016Z,12
2023-05-12T03:33:43.775Z,12
2023-05-12T03:34:50.686Z,11
2023-05-12T03:35:57.460Z,12
2023-05-12T03:37:04.397Z,14
2023-05-12T03:38:11.353Z,13
2023-05-12T03:39:18.242Z,12
2023-05-12T03:40:25.181Z,11
2023-05-12T03:41:32.076Z,10
2023-05-12T03:42:39.125Z,13
2023-05-12T03:43:46.027Z,11
2023-05-12T03:44:53.073Z,12
2023-05-12T03:45:59.909Z,13
2023-05-12T03:47:06.737Z,10
2023-05-12T03:48:13.665Z,12
2023-05-12T03:49:20.472Z,10
2023-05-12T03:50:27.309Z,12
2023-05-12T03:51:34.231Z,13
2023-05-12T03:52:41.060Z,13
2023-05-12T03:53:47.916Z,12
2023-05-12T03:54:54.731Z,11
2023-05-12T03:56:01.731Z,11
2023-05-12T03:57:08.653Z,13
2023-05-12T03:58:15.506Z,11
2023-05-12T03:59:22.418Z,14
2023-05-12T04:00:29.385Z,12
2023-05-12T04:01:36.260Z,13
2023-05-12T04:02:43.138Z,13
2023-05-12T04:03:50.199Z,13
2023-05-12T04:04:57.223Z,11
2023-05-12T04:06:04.198Z,10
2023-05-12T04:07:11.475Z,12
2023-05-12T04:08:18.344Z,14
2023-05-12T04:09:28.155Z,12
2023-05-12T04:10:35.178Z,12
2023-05-12T04:11:42.171Z,14
2023-05-12T04:12:49.129Z,12
2023-05-12T04:13:56.096Z,13
2023-05-12T04:15:03.013Z,13
2023-05-12T04:16:10.252Z,13
2023-05-12T04:17:17.108Z,16
2023-05-12T04:18:23.970Z,14
2023-05-12T04:19:31.951Z,12
2023-05-12T04:20:38.781Z,13
2023-05-12T04:21:45.598Z,12
2023-05-12T04:22:52.509Z,11
2023-05-12T04:24:06.204Z,12
2023-05-12T04:25:13.056Z,13
2023-05-12T04:26:19.956Z,11
2023-05-12T04:27:26.900Z,12
2023-05-12T04:28:54.272Z,12
2023-05-12T04:30:01.176Z,14
2023-05-12T04:31:08.358Z,12
2023-05-12T04:32:15.265Z,14
2023-05-12T04:33:22.129Z,13
2023-05-12T04:34:28.978Z,11
2023-05-12T04:35:35.831Z,13
2023-05-12T04:36:42.770Z,11
2023-05-12T04:37:49.634Z,11
2023-05-12T04:38:56.489Z,13
2023-05-12T04:40:03.299Z,11
2023-05-12T04:41:10.297Z,12
2023-05-12T04:42:17.167Z,12
2023-05-12T04:44:30.869Z,16
2023-05-12T04:45:37.718Z,13
2023-05-12T04:46:44.618Z,12
2023-05-12T04:47:51.549Z,13
2023-05-12T04:48:58.325Z,15
2023-05-12T04:50:05.151Z,13
2023-05-12T04:51:12.206Z,11
2023-05-12T04:52:19.232Z,12
2023-05-12T04:54:08.874Z,12
2023-05-12T04:55:15.765Z,14
2023-05-12T04:56:22.655Z,12
2023-05-12T04:57:29.479Z,13
2023-05-12T04:58:36.332Z,13
2023-05-12T04:59:43.200Z,12
2023-05-12T05:00:50.116Z,15
2023-05-12T05:01:56.964Z,14
2023-05-12T05:03:03.934Z,15
2023-05-12T05:04:10.736Z,12
2023-05-12T05:05:17.603Z,14
2023-05-12T05:06:24.468Z,14
2023-05-12T05:07:31.305Z,13
2023-05-12T05:08:38.162Z,12
2023-05-12T05:09:45.127Z,12
2023-05-12T05:10:51.930Z,11
2023-05-12T05:11:58.802Z,14
2023-05-12T05:13:05.642Z,13
2023-05-12T05:14:12.561Z,13
2023-05-12T05:15:19.616Z,14
2023-05-12T05:16:26.538Z,13
2023-05-12T05:17:33.342Z,12
2023-05-12T05:18:40.228Z,15
2023-05-12T05:19:55.853Z,13
2023-05-12T05:20:58.229Z,12
2023-05-12T05:22:00.891Z,11
2023-05-12T05:23:07.977Z,14
2023-05-12T05:24:14.847Z,11
2023-05-12T05:25:21.730Z,11
2023-05-12T05:26:28.610Z,13
2023-05-12T05:27:35.475Z,12
2023-05-12T05:28:42.382Z,13
2023-05-12T05:29:49.322Z,12
2023-05-12T05:30:58.437Z,15
2023-05-12T05:32:05.690Z,15
2023-05-12T05:33:12.616Z,10
2023-05-12T05:34:19.550Z,14
2023-05-12T05:35:26.326Z,14
2023-05-12T05:36:33.236Z,12
2023-05-12T05:37:40.102Z,11
2023-05-12T05:38:46.935Z,10
2023-05-12T05:39:53.779Z,9
2023-05-12T05:41:00.599Z,12
2023-05-12T05:42:07.681Z,14
2023-05-12T05:43:14.493Z,13
2023-05-12T05:44:21.310Z,10
2023-05-12T05:45:28.247Z,10
2023-05-12T05:46:35.084Z,12
2023-05-12T05:47:42.065Z,12
2023-05-12T05:48:48.838Z,10
2023-05-12T05:49:55.680Z,9
2023-05-12T05:51:02.469Z,14
2023-05-12T05:52:09.337Z,12
2023-05-12T05:53:16.197Z,12
2023-05-12T05:54:23.011Z,11
2023-05-12T05:55:29.876Z,11
2023-05-12T05:56:36.703Z,10
2023-05-12T05:57:43.552Z,10
2023-05-12T05:58:50.392Z,10
2023-05-12T05:59:57.378Z,12
2023-05-12T06:01:04.222Z,13
2023-05-12T06:02:11.039Z,12
2023-05-12T06:03:18.048Z,10
2023-05-12T06:04:24.852Z,11
2023-05-12T06:05:31.693Z,10
2023-05-12T06:06:38.563Z,10
2023-05-12T06:07:45.415Z,10
2023-05-12T06:08:52.326Z,9
2023-05-12T06:09:59.130Z,10
2023-05-12T06:11:06.023Z,11
2023-05-12T06:12:12.829Z,14
2023-05-12T06:13:19.744Z,11
2023-05-12T06:14:26.645Z,11
2023-05-12T06:15:35.472Z,9
2023-05-12T06:16:43.749Z,9
2023-05-12T06:17:50.581Z,11
2023-05-12T06:18:57.426Z,9
2023-05-12T06:20:04.314Z,9
2023-05-12T06:21:11.338Z,9
2023-05-12T06:22:18.157Z,13
2023-05-12T06:23:25.079Z,10
2023-05-12T06:24:31.930Z,11
2023-05-12T06:25:38.798Z,9
2023-05-12T06:26:45.618Z,10
2023-05-12T06:27:52.476Z,9
2023-05-12T06:28:59.309Z,8
2023-05-12T06:30:06.077Z,11
2023-05-12T06:31:13.228Z,10
2023-05-12T06:32:20.103Z,7
2023-05-12T06:33:26.906Z,11
2023-05-12T06:34:33.752Z,9
2023-05-12T06:35:40.681Z,9
2023-05-12T06:36:50.299Z,9
2023-05-12T06:37:57.125Z,9
2023-05-12T06:39:03.970Z,8
2023-05-12T06:40:10.882Z,10
2023-05-12T06:41:17.776Z,7
2023-05-12T06:42:24.705Z,11
2023-05-12T06:43:31.629Z,9
2023-05-12T06:44:39.995Z,9
2023-05-12T06:45:43.520Z,9
2023-05-12T06:46:50.446Z,11
2023-05-12T06:47:57.405Z,8
2023-05-12T06:49:04.251Z,9
2023-05-12T06:50:11.903Z,11
2023-05-12T06:51:18.791Z,9
2023-05-12T06:52:25.771Z,8
2023-05-12T06:53:32.549Z,7
2023-05-12T06:54:42.021Z,8
2023-05-12T06:55:48.940Z,8
2023-05-12T06:56:55.747Z,11
2023-05-12T06:58:02.579Z,9
2023-05-12T06:59:09.580Z,15
2023-05-12T07:00:17.414Z,8
2023-05-12T07:01:25.127Z,9
2023-05-12T07:02:31.956Z,9
2023-05-12T07:03:38.898Z,8
2023-05-12T07:04:45.594Z,7
2023-05-12T07:05:52.447Z,8
2023-05-12T07:06:59.469Z,10
2023-05-12T07:08:06.763Z,11
2023-05-12T07:09:13.844Z,8
2023-05-12T07:10:20.969Z,7
2023-05-12T07:11:28.081Z,8
2023-05-12T07:12:35.122Z,10
2023-05-12T07:13:42.182Z,7
2023-05-12T07:14:49.279Z,8
2023-05-12T07:15:56.413Z,7
2023-05-12T07:17:03.482Z,8
2023-05-12T07:18:10.543Z,9
2023-05-12T07:19:17.566Z,9
2023-05-12T07:20:24.710Z,9
2023-05-12T07:21:31.815Z,11
2023-05-12T07:22:39.143Z,9
2023-05-12T07:23:45.935Z,8
2023-05-12T07:24:53.015Z,8
2023-05-12T07:26:00.147Z,10
2023-05-12T07:27:07.324Z,8
2023-05-12T07:28:14.378Z,10
2023-05-12T07:29:21.502Z,10
2023-05-12T07:30:28.573Z,9
2023-05-12T07:31:35.664Z,8
2023-05-12T07:32:42.756Z,8
2023-05-12T07:34:13.800Z,9
2023-05-12T07:35:21.072Z,10
2023-05-12T07:36:28.166Z,7
2023-05-12T07:37:35.263Z,9
2023-05-12T07:38:42.879Z,10
2023-05-12T07:39:58.259Z,8
2023-05-12T07:41:05.692Z,8
2023-05-12T07:42:13.183Z,10
2023-05-12T07:43:20.286Z,8
2023-05-12T07:44:27.440Z,9
2023-05-12T07:45:39.403Z,8
2023-05-12T07:46:46.693Z,8
2023-05-12T07:47:53.893Z,7
2023-05-12T07:49:01.879Z,9
2023-05-12T07:50:09.116Z,6
2023-05-12T07:51:16.369Z,8
2023-05-12T07:52:23.568Z,7
2023-05-12T07:53:35.612Z,9
2023-05-12T07:54:42.744Z,8
2023-05-12T07:56:01.614Z,7
2023-05-12T07:57:18.532Z,12
2023-05-12T07:58:25.619Z,8
2023-05-12T07:59:32.640Z,6
2023-05-12T08:00:49.559Z,6
2023-05-12T08:02:11.230Z,7
2023-05-12T08:03:18.386Z,8
2023-05-12T08:04:31.263Z,7
2023-05-12T08:05:43.183Z,7
2023-05-12T08:06:50.369Z,8
2023-05-12T08:07:57.649Z,8
2023-05-12T08:09:04.664Z,6
2023-05-12T08:10:25.330Z,9
2023-05-12T08:11:32.617Z,9
2023-05-12T08:12:39.497Z,6
2023-05-12T08:13:46.548Z,5
2023-05-12T08:14:53.715Z,7
2023-05-12T08:16:00.870Z,6
2023-05-12T08:17:29.116Z,6
2023-05-12T08:18:34.624Z,8
2023-05-12T08:19:41.947Z,7
2023-05-12T08:20:48.843Z,8
2023-05-12T08:21:55.909Z,6
2023-05-12T08:23:07.198Z,8
2023-05-12T08:24:14.242Z,9
2023-05-12T08:25:21.461Z,9
2023-05-12T08:26:28.641Z,8
2023-05-12T08:27:35.777Z,7
2023-05-12T08:28:42.939Z,7
2023-05-12T08:29:50.016Z,6
2023-05-12T08:30:57.189Z,6
2023-05-12T08:32:21.604Z,7
2023-05-12T08:34:21.836Z,7
2023-05-12T08:35:29.028Z,7
2023-05-12T08:36:36.242Z,6
2023-05-12T08:37:43.343Z,5
2023-05-12T08:38:55.383Z,7
2023-05-12T08:40:02.604Z,7
2023-05-12T08:41:10.043Z,8
2023-05-12T08:42:22.133Z,7
2023-05-12T08:43:44.085Z,7
2023-05-12T08:44:54.070Z,7
2023-05-12T08:46:03.193Z,8
2023-05-12T08:47:10.186Z,5
2023-05-12T08:48:17.387Z,8
2023-05-12T08:49:24.618Z,10
2023-05-12T08:50:32.051Z,7
2023-05-12T08:51:39.062Z,7
2023-05-12T08:52:48.889Z,8
2023-05-12T08:53:55.969Z,7
2023-05-12T08:55:03.562Z,9
2023-05-12T08:57:26.031Z,9
2023-05-12T08:58:40.769Z,6
2023-05-12T08:59:56.025Z,7
2023-05-12T09:01:03.045Z,6
2023-05-12T09:02:11.286Z,7
2023-05-12T09:03:35.877Z,7
2023-05-12T09:04:54.161Z,6
2023-05-12T09:06:06.017Z,10
2023-05-12T09:07:18.978Z,8
2023-05-12T09:08:28.333Z,8
2023-05-12T09:09:35.465Z,9
2023-05-12T09:10:46.556Z,11
2023-05-12T09:11:53.645Z,7
2023-05-12T09:13:07.549Z,8
2023-05-12T09:14:25.894Z,7
2023-05-12T09:15:44.960Z,8
2023-05-12T09:17:08.549Z,7
2023-05-12T09:19:03.103Z,7
2023-05-12T09:20:15.284Z,7
2023-05-12T09:21:16.478Z,10
2023-05-12T09:22:23.547Z,10
2023-05-12T09:23:30.696Z,10
2023-05-12T09:24:38.184Z,8
2023-05-12T09:25:45.300Z,7
2023-05-12T09:27:17.562Z,7
2023-05-12T09:28:38.153Z,6
2023-05-12T09:30:26.808Z,6
2023-05-12T09:31:34.023Z,6
2023-05-12T09:32:41.028Z,8
2023-05-12T09:33:48.224Z,7
2023-05-12T09:34:55.295Z,6
2023-05-12T09:36:05.191Z,5
2023-05-12T09:37:14.589Z,7
2023-05-12T09:38:19.516Z,7
2023-05-12T09:39:26.560Z,7
2023-05-12T09:40:33.647Z,7
2023-05-12T09:41:40.661Z,7
2023-05-12T09:42:47.780Z,6
2023-05-12T09:43:54.724Z,6
2023-05-12T09:45:01.564Z,7
2023-05-12T09:46:11.262Z,6
2023-05-12T09:47:19.231Z,6
2023-05-12T09:48:41.605Z,9
2023-05-12T09:50:08.199Z,9
2023-05-12T09:51:15.021Z,6
2023-05-12T09:52:21.843Z,8
2023-05-12T09:53:28.804Z,5
2023-05-12T09:54:35.751Z,5
2023-05-12T09:55:42.721Z,6
2023-05-12T09:56:50.678Z,6
2023-05-12T09:58:00.332Z,6
2023-05-12T09:59:10.126Z,6
2023-05-12T10:00:33.049Z,8
2023-05-12T10:01:24.417Z,7
2023-05-12T10:02:31.248Z,5
2023-05-12T10:03:37.814Z,6
2023-05-12T10:04:44.734Z,6
2023-05-12T10:06:16.759Z,6
2023-05-12T10:07:23.549Z,7
2023-05-12T10:08:30.475Z,6
2023-05-12T10:09:38.429Z,6
2023-05-12T10:10:45.249Z,6
2023-05-12T10:11:54.206Z,7
2023-05-12T10:13:42.696Z,7
2023-05-12T10:14:49.610Z,7
2023-05-12T10:16:02.529Z,7
2023-05-12T10:17:15.373Z,8
2023-05-12T10:18:28.109Z,7
2023-05-12T10:19:42.778Z,9
2023-05-12T10:20:49.748Z,8
2023-05-12T10:22:08.963Z,7
2023-05-12T10:23:23.466Z,7
2023-05-12T10:24:41.010Z,6
2023-05-12T10:25:47.930Z,6
2023-05-12T10:26:54.786Z,7
2023-05-12T10:28:01.604Z,7
2023-05-12T10:29:15.928Z,8
2023-05-12T10:30:22.821Z,6
2023-05-12T10:31:29.900Z,6
2023-05-12T10:32:36.683Z,7
2023-05-12T10:33:43.564Z,5
2023-05-12T10:34:58.185Z,7
2023-05-12T10:36:10.599Z,7
2023-05-12T10:37:45.503Z,7
2023-05-12T10:38:53.953Z,6
2023-05-12T10:40:00.913Z,6
2023-05-12T10:41:08.056Z,7
2023-05-12T10:42:32.242Z,5
2023-05-12T10:43:41.717Z,7
2023-05-12T10:44:48.512Z,6
2023-05-12T10:45:55.470Z,6
2023-05-12T10:47:13.143Z,5
2023-05-12T10:48:19.216Z,6
2023-05-12T10:49:26.183Z,7
2023-05-12T10:50:38.189Z,7
2023-05-12T10:51:45.111Z,8
2023-05-12T10:52:52.059Z,7
2023-05-12T10:53:58.865Z,6
2023-05-12T10:55:05.976Z,6
2023-05-12T10:56:13.010Z,5
2023-05-12T10:57:19.689Z,5
2023-05-12T10:58:26.885Z,7
2023-05-12T10:59:33.815Z,6
2023-05-12T11:00:59.280Z,7
2023-05-12T11:02:12.021Z,11
2023-05-12T11:03:28.673Z,9
2023-05-12T11:04:34.494Z,7
2023-05-12T11:05:51.998Z,5
2023-05-12T11:07:01.554Z,6
2023-05-12T11:08:09.318Z,8
2023-05-12T11:09:15.511Z,5
2023-05-12T11:10:22.208Z,5
2023-05-12T11:11:29.651Z,8
2023-05-12T11:12:35.743Z,6
2023-05-12T11:13:42.392Z,5
2023-05-12T11:14:49.417Z,4
2023-05-12T11:15:56.406Z,6
2023-05-12T11:17:03.197Z,9
2023-05-12T11:18:10.090Z,5
2023-05-12T11:19:16.865Z,7
2023-05-12T11:20:23.781Z,6
2023-05-12T11:21:30.710Z,6
2023-05-12T11:22:37.854Z,7
2023-05-12T11:23:44.799Z,5
2023-05-12T11:24:51.826Z,7
2023-05-12T11:25:58.686Z,6
2023-05-12T11:27:05.625Z,7
2023-05-12T11:28:15.068Z,6
2023-05-12T11:29:21.969Z,7
2023-05-12T11:30:28.810Z,6
2023-05-12T11:31:35.741Z,6
2023-05-12T11:32:42.657Z,7
2023-05-12T11:33:56.047Z,6
2023-05-12T11:35:06.669Z,5
2023-05-12T11:36:21.530Z,6
2023-05-12T11:37:26.944Z,5
2023-05-12T11:38:33.723Z,5
2023-05-12T11:39:40.745Z,4
2023-05-12T11:40:47.583Z,6
2023-05-12T11:41:59.475Z,8
2023-05-12T11:43:06.432Z,4
2023-05-12T11:44:13.217Z,5
2023-05-12T11:45:20.184Z,5
2023-05-12T11:46:26.975Z,7
2023-05-12T11:47:33.903Z,5
2023-05-12T11:48:40.725Z,6
2023-05-12T11:49:47.552Z,7
2023-05-12T11:50:54.319Z,6
2023-05-12T11:52:01.254Z,6
2023-05-12T11:53:08.040Z,6
2023-05-12T11:54:17.903Z,7
2023-05-12T11:55:24.759Z,5
2023-05-12T11:56:31.574Z,8
2023-05-12T11:57:38.402Z,6
2023-05-12T11:58:45.278Z,5
2023-05-12T11:59:54.811Z,7
2023-05-12T12:01:01.591Z,5
2023-05-12T12:02:11.020Z,6
2023-05-12T12:03:17.909Z,7
2023-05-12T12:04:24.712Z,9
2023-05-12T12:05:36.637Z,8
2023-05-12T12:06:43.409Z,6
2023-05-12T12:07:50.423Z,8
2023-05-12T12:08:57.211Z,6
2023-05-12T12:10:03.979Z,7
2023-05-12T12:11:13.658Z,8
2023-05-12T12:12:20.514Z,8
2023-05-12T12:13:34.737Z,5
2023-05-12T12:14:41.663Z,9
2023-05-12T12:15:48.445Z,5
2023-05-12T12:16:55.424Z,7
2023-05-12T12:18:02.309Z,8
2023-05-12T12:19:09.228Z,7
2023-05-12T12:20:15.972Z,7
2023-05-12T12:21:22.824Z,8
2023-05-12T12:22:29.657Z,8
2023-05-12T12:23:47.610Z,10
2023-05-12T12:24:43.387Z,10
2023-05-12T12:25:50.229Z,7
2023-05-12T12:26:57.187Z,7
2023-05-12T12:28:04.069Z,9
2023-05-12T12:29:10.909Z,8
2023-05-12T12:30:17.698Z,9
2023-05-12T12:31:24.584Z,7
2023-05-12T12:32:31.591Z,7
2023-05-12T12:33:38.385Z,7
2023-05-12T12:34:45.370Z,4
2023-05-12T12:35:52.329Z,6
2023-05-12T12:36:59.305Z,8
2023-05-12T12:38:06.155Z,8
2023-05-12T12:39:13.013Z,8
2023-05-12T12:40:20.011Z,6
2023-05-12T12:41:26.996Z,5
2023-05-12T12:42:34.113Z,4
2023-05-12T12:43:41.214Z,6
2023-05-12T12:44:48.307Z,5
2023-05-12T12:45:55.302Z,7
2023-05-12T12:47:02.352Z,7
2023-05-12T12:48:09.746Z,5
2023-05-12T12:49:17.337Z,7
2023-05-12T12:50:25.215Z,5
2023-05-12T12:51:42.364Z,5
2023-05-12T12:52:39.074Z,9
2023-05-12T12:53:46.054Z,6
2023-05-12T12:54:53.343Z,6
2023-05-12T12:56:00.571Z,8
2023-05-12T12:57:07.549Z,8
2023-05-12T12:58:14.521Z,6
2023-05-12T12:59:21.578Z,5
2023-05-12T13:00:29.125Z,8
2023-05-12T13:01:36.345Z,6
2023-05-12T13:02:43.506Z,7
2023-05-12T13:03:50.805Z,6
2023-05-12T13:04:57.828Z,5
2023-05-12T13:06:12.375Z,6
2023-05-12T13:07:19.336Z,5
2023-05-12T13:08:26.439Z,6
2023-05-12T13:09:34.064Z,4
2023-05-12T13:10:40.964Z,4
2023-05-12T13:11:47.932Z,4
2023-05-12T13:12:54.850Z,5
2023-05-12T13:14:01.792Z,5
2023-05-12T13:15:08.870Z,6
2023-05-12T13:16:15.818Z,9
2023-05-12T13:17:25.832Z,8
2023-05-12T13:18:32.746Z,8
2023-05-12T13:19:39.801Z,9
2023-05-12T13:20:50.623Z,8
2023-05-12T13:22:01.261Z,7
2023-05-12T13:23:09.303Z,8
2023-05-12T13:24:16.273Z,6
2023-05-12T13:25:23.470Z,6
2023-05-12T13:26:30.387Z,6
2023-05-12T13:27:37.340Z,6
2023-05-12T13:28:44.395Z,5
2023-05-12T13:29:52.197Z,5
2023-05-12T13:30:59.296Z,5
2023-05-12T13:32:06.731Z,10
2023-05-12T13:33:14.063Z,9
2023-05-12T13:34:21.225Z,7
2023-05-12T13:35:28.277Z,6
2023-05-12T13:36:36.076Z,6
2023-05-12T13:37:45.944Z,5
2023-05-12T13:38:53.145Z,5
2023-05-12T13:40:00.168Z,5
2023-05-12T13:41:07.369Z,4
2023-05-12T13:42:15.051Z,5
2023-05-12T13:43:22.084Z,6
2023-05-12T13:44:29.139Z,5
2023-05-12T13:45:37.208Z,5
2023-05-12T13:46:44.693Z,6
2023-05-12T13:47:51.732Z,6
2023-05-12T13:48:58.992Z,4
2023-05-12T13:50:06.132Z,4
2023-05-12T13:51:13.315Z,6
2023-05-12T13:52:22.471Z,7
2023-05-12T13:53:33.100Z,6
2023-05-12T13:54:40.157Z,9
2023-05-12T13:55:47.300Z,6
2023-05-12T13:56:54.246Z,6
2023-05-12T13:58:04.366Z,7
2023-05-12T13:59:11.361Z,9
2023-05-12T14:00:21.028Z,8
2023-05-12T14:01:28.136Z,5
2023-05-12T14:02:35.145Z,5
2023-05-12T14:03:42.728Z,6
2023-05-12T14:04:52.602Z,7
2023-05-12T14:05:59.599Z,10
2023-05-12T14:07:08.391Z,7
2023-05-12T14:08:14.137Z,7
2023-05-12T14:09:21.446Z,7
2023-05-12T14:10:28.638Z,25
2023-05-12T14:11:38.619Z,10
2023-05-12T14:12:46.110Z,9
2023-05-12T14:13:53.445Z,8
2023-05-12T14:15:12.219Z,10
2023-05-12T14:16:21.363Z,7
2023-05-12T14:17:28.455Z,7
2023-05-12T14:18:35.551Z,6
2023-05-12T14:19:42.947Z,8
2023-05-12T14:20:49.989Z,8
2023-05-12T14:21:57.060Z,6
2023-05-12T14:23:04.070Z,6
2023-05-12T14:24:11.063Z,5
2023-05-12T14:25:18.366Z,10
2023-05-12T14:26:25.271Z,7
2023-05-12T14:27:32.450Z,6
2023-05-12T14:28:39.509Z,5
2023-05-12T14:29:47.686Z,6
2023-05-12T14:30:55.900Z,6
2023-05-12T14:32:03.013Z,7
2023-05-12T14:33:10.154Z,6
2023-05-12T14:34:17.143Z,6
2023-05-12T14:35:24.112Z,5
2023-05-12T14:36:33.962Z,7
2023-05-12T14:37:41.010Z,7
2023-05-12T14:38:48.151Z,4
2023-05-12T14:39:55.170Z,8
2023-05-12T14:41:02.248Z,6
2023-05-12T14:42:09.309Z,7
2023-05-12T14:43:16.218Z,7
2023-05-12T14:44:23.221Z,6
2023-05-12T14:45:33.304Z,8
2023-05-12T14:46:40.348Z,10
2023-05-12T14:47:47.575Z,7
2023-05-12T14:48:54.560Z,6
2023-05-12T14:50:01.522Z,6
2023-05-12T14:51:08.762Z,8
2023-05-12T14:52:16.505Z,8
2023-05-12T14:53:23.529Z,5
2023-05-12T14:54:30.758Z,10
2023-05-12T14:55:40.935Z,6
2023-05-12T14:56:47.920Z,7
2023-05-12T14:57:55.179Z,6
2023-05-12T14:59:05.035Z,6
2023-05-12T15:00:12.216Z,6
2023-05-12T15:01:19.510Z,6
2023-05-12T15:02:26.479Z,6
2023-05-12T15:03:34.919Z,7
2023-05-12T15:04:44.760Z,5
2023-05-12T15:06:05.353Z,5
2023-05-12T15:06:59.800Z,5
2023-05-12T15:08:07.058Z,8
2023-05-12T15:09:14.217Z,7
2023-05-12T15:10:24.172Z,7
2023-05-12T15:11:31.341Z,10
2023-05-12T15:12:38.427Z,6
2023-05-12T15:13:45.473Z,5
2023-05-12T15:14:53.187Z,7
2023-05-12T15:16:02.983Z,7
2023-05-12T15:17:10.966Z,6
2023-05-12T15:18:18.786Z,7
2023-05-12T15:19:26.011Z,5
2023-05-12T15:20:32.968Z,8
2023-05-12T15:21:43.049Z,5
2023-05-12T15:22:49.973Z,7
2023-05-12T15:24:00.450Z,7
2023-05-12T15:25:08.584Z,5
2023-05-12T15:26:31.786Z,5
2023-05-12T15:27:22.696Z,5
2023-05-12T15:28:30.548Z,8
2023-05-12T15:29:37.702Z,4
2023-05-12T15:30:44.723Z,5
2023-05-12T15:31:59.356Z,7
2023-05-12T15:33:08.441Z,7
2023-05-12T15:34:15.294Z,7
2023-05-12T15:35:22.597Z,8
2023-05-12T15:36:29.695Z,7
2023-05-12T15:37:36.688Z,6
2023-05-12T15:38:43.657Z,6
2023-05-12T15:39:50.616Z,5
2023-05-12T15:40:58.324Z,6
2023-05-12T15:42:05.501Z,5
2023-05-12T15:43:12.239Z,7
2023-05-12T15:44:19.281Z,7
2023-05-12T15:45:26.228Z,7
2023-05-12T15:46:35.820Z,7
2023-05-12T15:47:43.071Z,8
2023-05-12T15:48:50.745Z,7
2023-05-12T15:49:58.067Z,5
2023-05-12T15:51:05.028Z,5
2023-05-12T15:52:12.019Z,6
2023-05-12T15:53:19.010Z,7
2023-05-12T15:54:26.270Z,5
2023-05-12T15:55:36.353Z,5
2023-05-12T15:56:43.327Z,8
2023-05-12T15:57:53.364Z,8
2023-05-12T15:59:00.325Z,7
2023-05-12T16:00:10.323Z,7
2023-05-12T16:01:20.504Z,7
2023-05-12T16:02:27.534Z,6
2023-05-12T16:03:35.117Z,5
2023-05-12T16:04:44.992Z,11
2023-05-12T16:05:51.909Z,7
2023-05-12T16:06:59.084Z,10
2023-05-12T16:08:06.092Z,7
2023-05-12T16:09:15.899Z,11
2023-05-12T16:10:23.125Z,9
2023-05-12T16:11:32.936Z,7
2023-05-12T16:12:39.954Z,6
2023-05-12T16:13:46.918Z,5
2023-05-12T16:14:56.574Z,7
2023-05-12T16:16:03.774Z,7
2023-05-12T16:17:11.361Z,9
2023-05-12T16:18:21.707Z,6
2023-05-12T16:19:29.208Z,6
2023-05-12T16:20:37.030Z,8
2023-05-12T16:21:43.999Z,8
2023-05-12T16:22:51.103Z,11
2023-05-12T16:23:58.087Z,7
2023-05-12T16:25:05.365Z,7
2023-05-12T16:26:12.352Z,5
2023-05-12T16:27:19.383Z,7
2023-05-12T16:28:26.522Z,7
2023-05-12T16:29:33.505Z,7
2023-05-12T16:30:40.484Z,10
2023-05-12T16:31:50.109Z,9
2023-05-12T16:32:57.166Z,6
2023-05-12T16:34:07.346Z,7
2023-05-12T16:35:14.360Z,5
2023-05-12T16:36:21.595Z,5
2023-05-12T16:37:29.173Z,11
2023-05-12T16:38:36.061Z,6
2023-05-12T16:39:43.070Z,6